sensor_id;sensor_type;location;lat;lon;timestamp;P1;P2;P0
44674;PMS5003;30388;52.038;-1.478;2022-11-14T00:00:01;807;803;
44674;PMS5003;30388;52.038;-1.478;2022-11-14T00:02:29;793;793;
44674;PMS5003;30388;52.038;-1.478;2022-11-14T00:04:55;811;809;
44674;PMS5003;30388;52.038;-1.478;2022-11-14T00:07:22;805;802;
44674;PMS5003;30388;52.038;-1.478;2022-11-14T00:09:49;861;858;
44674;PMS5003;30388;52.038;-1.478;2022-11-14T00:12:16;826;824;
44674;PMS5003;30388;52.038;-1.478;2022-11-14T00:14:43;795;794;
44674;PMS5003;30388;52.038;-1.478;2022-11-14T00:17:10;784;781;
44674;PMS5003;30388;52.038;-1.478;2022-11-14T00:19:37;800;795;
44674;PMS5003;30388;52.038;-1.478;2022-11-14T00:22:04;791;786;
44674;PMS5003;30388;52.038;-1.478;2022-11-14T00:24:31;795;788;
44674;PMS5003;30388;52.038;-1.478;2022-11-14T00:26:58;770;770;
44674;PMS5003;30388;52.038;-1.478;2022-11-14T00:29:25;782;781;
44674;PMS5003;30388;52.038;-1.478;2022-11-14T00:31:52;802;793;
44674;PMS5003;30388;52.038;-1.478;2022-11-14T00:34:18;821;815;
44674;PMS5003;30388;52.038;-1.478;2022-11-14T00:36:46;790;788;
44674;PMS5003;30388;52.038;-1.478;2022-11-14T00:39:13;778;774;
44674;PMS5003;30388;52.038;-1.478;2022-11-14T00:41:41;823;822;
44674;PMS5003;30388;52.038;-1.478;2022-11-14T00:44:08;803;797;
44674;PMS5003;30388;52.038;-1.478;2022-11-14T00:46:35;804;804;
44674;PMS5003;30388;52.038;-1.478;2022-11-14T00:49:03;802;799;
44674;PMS5003;30388;52.038;-1.478;2022-11-14T00:51:30;794;790;
44674;PMS5003;30388;52.038;-1.478;2022-11-14T00:53:57;804;798;
44674;PMS5003;30388;52.038;-1.478;2022-11-14T00:56:24;812;812;
44674;PMS5003;30388;52.038;-1.478;2022-11-14T00:58:50;821;821;
44674;PMS5003;30388;52.038;-1.478;2022-11-14T01:01:17;813;811;
44674;PMS5003;30388;52.038;-1.478;2022-11-14T01:03:46;802;799;
44674;PMS5003;30388;52.038;-1.478;2022-11-14T01:06:14;812;803;
44674;PMS5003;30388;52.038;-1.478;2022-11-14T01:08:42;846;846;
44674;PMS5003;30388;52.038;-1.478;2022-11-14T01:11:10;847;843;
44674;PMS5003;30388;52.038;-1.478;2022-11-14T01:13:40;883;878;
44674;PMS5003;30388;52.038;-1.478;2022-11-14T01:16:07;863;860;
44674;PMS5003;30388;52.038;-1.478;2022-11-14T01:18:35;870;869;
44674;PMS5003;30388;52.038;-1.478;2022-11-14T01:21:04;872;869;
44674;PMS5003;30388;52.038;-1.478;2022-11-14T01:23:32;898;897;
44674;PMS5003;30388;52.038;-1.478;2022-11-14T01:26:00;894;894;
44674;PMS5003;30388;52.038;-1.478;2022-11-14T01:28:28;862;854;
44674;PMS5003;30388;52.038;-1.478;2022-11-14T01:30:55;875;873;
44674;PMS5003;30388;52.038;-1.478;2022-11-14T01:33:23;844;839;
44674;PMS5003;30388;52.038;-1.478;2022-11-14T01:35:50;845;843;
44674;PMS5003;30388;52.038;-1.478;2022-11-14T01:38:18;823;822;
44674;PMS5003;30388;52.038;-1.478;2022-11-14T01:40:45;818;818;
44674;PMS5003;30388;52.038;-1.478;2022-11-14T01:43:29;813;812;
44674;PMS5003;30388;52.038;-1.478;2022-11-14T01:45:59;803;801;
44674;PMS5003;30388;52.038;-1.478;2022-11-14T01:48:30;803;801;
44674;PMS5003;30388;52.038;-1.478;2022-11-14T01:51:03;800;794;
44674;PMS5003;30388;52.038;-1.478;2022-11-14T01:53:38;839;835;
44674;PMS5003;30388;52.038;-1.478;2022-11-14T01:56:07;822;818;
44674;PMS5003;30388;52.038;-1.478;2022-11-14T01:58:37;869;865;
44674;PMS5003;30388;52.038;-1.478;2022-11-14T02:01:07;840;839;
44674;PMS5003;30388;52.038;-1.478;2022-11-14T02:03:36;835;834;
44674;PMS5003;30388;52.038;-1.478;2022-11-14T02:06:05;868;865;
44674;PMS5003;30388;52.038;-1.478;2022-11-14T02:08:34;845;843;
44674;PMS5003;30388;52.038;-1.478;2022-11-14T02:11:03;888;886;
44674;PMS5003;30388;52.038;-1.478;2022-11-14T02:13:30;835;834;
44674;PMS5003;30388;52.038;-1.478;2022-11-14T02:15:57;850;844;
44674;PMS5003;30388;52.038;-1.478;2022-11-14T02:18:25;817;812;
44674;PMS5003;30388;52.038;-1.478;2022-11-14T02:20:51;818;816;
44674;PMS5003;30388;52.038;-1.478;2022-11-14T02:23:23;808;806;
44674;PMS5003;30388;52.038;-1.478;2022-11-14T02:25:52;833;830;
44674;PMS5003;30388;52.038;-1.478;2022-11-14T02:28:19;820;819;
44674;PMS5003;30388;52.038;-1.478;2022-11-14T02:30:47;808;807;
44674;PMS5003;30388;52.038;-1.478;2022-11-14T02:33:15;787;787;
44674;PMS5003;30388;52.038;-1.478;2022-11-14T02:35:42;815;815;
44674;PMS5003;30388;52.038;-1.478;2022-11-14T02:38:09;815;812;
44674;PMS5003;30388;52.038;-1.478;2022-11-14T02:40:36;844;840;
44674;PMS5003;30388;52.038;-1.478;2022-11-14T02:43:03;789;784;
44674;PMS5003;30388;52.038;-1.478;2022-11-14T02:45:31;787;779;
44674;PMS5003;30388;52.038;-1.478;2022-11-14T02:47:58;802;801;
44674;PMS5003;30388;52.038;-1.478;2022-11-14T02:50:25;794;793;
44674;PMS5003;30388;52.038;-1.478;2022-11-14T02:52:53;767;766;
44674;PMS5003;30388;52.038;-1.478;2022-11-14T02:55:20;786;783;
44674;PMS5003;30388;52.038;-1.478;2022-11-14T02:57:47;760;759;
44674;PMS5003;30388;52.038;-1.478;2022-11-14T03:00:14;767;766;
44674;PMS5003;30388;52.038;-1.478;2022-11-14T03:02:42;764;764;
44674;PMS5003;30388;52.038;-1.478;2022-11-14T03:05:09;788;787;
44674;PMS5003;30388;52.038;-1.478;2022-11-14T03:07:36;772;768;
44674;PMS5003;30388;52.038;-1.478;2022-11-14T03:10:04;793;786;
44674;PMS5003;30388;52.038;-1.478;2022-11-14T03:12:32;779;774;
44674;PMS5003;30388;52.038;-1.478;2022-11-14T03:14:59;790;789;
44674;PMS5003;30388;52.038;-1.478;2022-11-14T03:17:29;786;784;
44674;PMS5003;30388;52.038;-1.478;2022-11-14T03:19:57;785;785;
44674;PMS5003;30388;52.038;-1.478;2022-11-14T03:22:24;794;788;
44674;PMS5003;30388;52.038;-1.478;2022-11-14T03:24:51;796;793;
44674;PMS5003;30388;52.038;-1.478;2022-11-14T03:27:18;825;825;
44674;PMS5003;30388;52.038;-1.478;2022-11-14T03:29:46;820;819;
44674;PMS5003;30388;52.038;-1.478;2022-11-14T03:32:15;795;795;
44674;PMS5003;30388;52.038;-1.478;2022-11-14T03:34:42;793;792;
44674;PMS5003;30388;52.038;-1.478;2022-11-14T03:37:09;787;785;
44674;PMS5003;30388;52.038;-1.478;2022-11-14T03:39:36;748;748;
44674;PMS5003;30388;52.038;-1.478;2022-11-14T03:42:03;776;776;
44674;PMS5003;30388;52.038;-1.478;2022-11-14T03:44:31;746;743;
44674;PMS5003;30388;52.038;-1.478;2022-11-14T03:46:58;808;807;
44674;PMS5003;30388;52.038;-1.478;2022-11-14T03:49:25;762;762;
44674;PMS5003;30388;52.038;-1.478;2022-11-14T03:51:52;815;811;
44674;PMS5003;30388;52.038;-1.478;2022-11-14T03:54:19;768;768;
44674;PMS5003;30388;52.038;-1.478;2022-11-14T03:56:45;715;712;
44674;PMS5003;30388;52.038;-1.478;2022-11-14T03:59:13;698;692;
44674;PMS5003;30388;52.038;-1.478;2022-11-14T04:01:40;709;708;
44674;PMS5003;30388;52.038;-1.478;2022-11-14T04:04:07;728;727;
44674;PMS5003;30388;52.038;-1.478;2022-11-14T04:06:34;736;734;
44674;PMS5003;30388;52.038;-1.478;2022-11-14T04:09:01;742;739;
44674;PMS5003;30388;52.038;-1.478;2022-11-14T04:11:28;752;748;
44674;PMS5003;30388;52.038;-1.478;2022-11-14T04:13:55;751;749;
44674;PMS5003;30388;52.038;-1.478;2022-11-14T04:16:22;746;746;
44674;PMS5003;30388;52.038;-1.478;2022-11-14T04:18:49;755;752;
44674;PMS5003;30388;52.038;-1.478;2022-11-14T04:21:16;760;760;
44674;PMS5003;30388;52.038;-1.478;2022-11-14T04:23:43;776;774;
44674;PMS5003;30388;52.038;-1.478;2022-11-14T04:26:11;774;773;
44674;PMS5003;30388;52.038;-1.478;2022-11-14T04:28:37;792;791;
44674;PMS5003;30388;52.038;-1.478;2022-11-14T04:31:05;793;793;
44674;PMS5003;30388;52.038;-1.478;2022-11-14T04:33:32;796;796;
44674;PMS5003;30388;52.038;-1.478;2022-11-14T04:35:59;777;777;
44674;PMS5003;30388;52.038;-1.478;2022-11-14T04:38:26;775;774;
44674;PMS5003;30388;52.038;-1.478;2022-11-14T04:40:53;757;757;
44674;PMS5003;30388;52.038;-1.478;2022-11-14T04:43:20;759;759;
44674;PMS5003;30388;52.038;-1.478;2022-11-14T04:45:47;746;746;
44674;PMS5003;30388;52.038;-1.478;2022-11-14T04:48:15;737;735;
44674;PMS5003;30388;52.038;-1.478;2022-11-14T04:50:43;725;721;
44674;PMS5003;30388;52.038;-1.478;2022-11-14T04:53:11;738;737;
44674;PMS5003;30388;52.038;-1.478;2022-11-14T04:55:38;765;764;
44674;PMS5003;30388;52.038;-1.478;2022-11-14T04:58:05;774;774;
44674;PMS5003;30388;52.038;-1.478;2022-11-14T05:00:33;774;774;
44674;PMS5003;30388;52.038;-1.478;2022-11-14T05:03:00;771;767;
44674;PMS5003;30388;52.038;-1.478;2022-11-14T05:05:27;801;798;
44674;PMS5003;30388;52.038;-1.478;2022-11-14T05:07:54;790;790;
44674;PMS5003;30388;52.038;-1.478;2022-11-14T05:10:21;774;771;
44674;PMS5003;30388;52.038;-1.478;2022-11-14T05:12:51;758;753;
44674;PMS5003;30388;52.038;-1.478;2022-11-14T05:15:19;770;763;
44674;PMS5003;30388;52.038;-1.478;2022-11-14T05:17:47;789;789;
44674;PMS5003;30388;52.038;-1.478;2022-11-14T05:20:15;758;755;
44674;PMS5003;30388;52.038;-1.478;2022-11-14T05:22:42;873;872;
44674;PMS5003;30388;52.038;-1.478;2022-11-14T05:25:09;868;866;
44674;PMS5003;30388;52.038;-1.478;2022-11-14T05:27:35;851;849;
44674;PMS5003;30388;52.038;-1.478;2022-11-14T05:30:03;850;847;
44674;PMS5003;30388;52.038;-1.478;2022-11-14T05:32:30;840;836;
44674;PMS5003;30388;52.038;-1.478;2022-11-14T05:34:57;860;858;
44674;PMS5003;30388;52.038;-1.478;2022-11-14T05:37:24;827;824;
44674;PMS5003;30388;52.038;-1.478;2022-11-14T05:39:51;822;819;
44674;PMS5003;30388;52.038;-1.478;2022-11-14T05:42:18;805;805;
44674;PMS5003;30388;52.038;-1.478;2022-11-14T05:44:45;784;784;
44674;PMS5003;30388;52.038;-1.478;2022-11-14T05:47:13;794;792;
44674;PMS5003;30388;52.038;-1.478;2022-11-14T05:49:40;785;785;
44674;PMS5003;30388;52.038;-1.478;2022-11-14T05:52:07;797;797;
44674;PMS5003;30388;52.038;-1.478;2022-11-14T05:54:34;805;801;
44674;PMS5003;30388;52.038;-1.478;2022-11-14T05:57:01;799;797;
44674;PMS5003;30388;52.038;-1.478;2022-11-14T05:59:28;798;798;
44674;PMS5003;30388;52.038;-1.478;2022-11-14T06:01:56;791;789;
44674;PMS5003;30388;52.038;-1.478;2022-11-14T06:04:22;790;787;
44674;PMS5003;30388;52.038;-1.478;2022-11-14T06:06:49;769;769;
44674;PMS5003;30388;52.038;-1.478;2022-11-14T06:09:16;779;776;
44674;PMS5003;30388;52.038;-1.478;2022-11-14T06:11:43;785;783;
44674;PMS5003;30388;52.038;-1.478;2022-11-14T06:14:10;767;765;
44674;PMS5003;30388;52.038;-1.478;2022-11-14T06:16:37;787;787;
44674;PMS5003;30388;52.038;-1.478;2022-11-14T06:19:04;765;764;
44674;PMS5003;30388;52.038;-1.478;2022-11-14T06:21:31;770;769;
44674;PMS5003;30388;52.038;-1.478;2022-11-14T06:23:58;789;789;
44674;PMS5003;30388;52.038;-1.478;2022-11-14T06:26:25;797;796;
44674;PMS5003;30388;52.038;-1.478;2022-11-14T06:28:53;782;782;
44674;PMS5003;30388;52.038;-1.478;2022-11-14T06:31:20;776;776;
44674;PMS5003;30388;52.038;-1.478;2022-11-14T06:33:48;771;767;
44674;PMS5003;30388;52.038;-1.478;2022-11-14T06:36:16;785;783;
44674;PMS5003;30388;52.038;-1.478;2022-11-14T06:38:44;778;778;
44674;PMS5003;30388;52.038;-1.478;2022-11-14T06:41:11;801;800;
44674;PMS5003;30388;52.038;-1.478;2022-11-14T06:43:40;796;796;
44674;PMS5003;30388;52.038;-1.478;2022-11-14T06:46:08;799;797;
44674;PMS5003;30388;52.038;-1.478;2022-11-14T06:48:37;804;798;
44674;PMS5003;30388;52.038;-1.478;2022-11-14T06:51:05;802;800;
44674;PMS5003;30388;52.038;-1.478;2022-11-14T06:53:33;795;793;
44674;PMS5003;30388;52.038;-1.478;2022-11-14T06:56:01;810;808;
44674;PMS5003;30388;52.038;-1.478;2022-11-14T06:58:31;798;798;
44674;PMS5003;30388;52.038;-1.478;2022-11-14T07:01:03;809;809;
44674;PMS5003;30388;52.038;-1.478;2022-11-14T07:03:31;803;803;
44674;PMS5003;30388;52.038;-1.478;2022-11-14T07:05:58;806;806;
44674;PMS5003;30388;52.038;-1.478;2022-11-14T07:08:25;802;802;
44674;PMS5003;30388;52.038;-1.478;2022-11-14T07:10:53;814;810;
44674;PMS5003;30388;52.038;-1.478;2022-11-14T07:13:20;808;808;
44674;PMS5003;30388;52.038;-1.478;2022-11-14T07:15:48;821;816;
44674;PMS5003;30388;52.038;-1.478;2022-11-14T07:18:16;815;815;
44674;PMS5003;30388;52.038;-1.478;2022-11-14T07:20:44;811;811;
44674;PMS5003;30388;52.038;-1.478;2022-11-14T07:23:11;826;819;
44674;PMS5003;30388;52.038;-1.478;2022-11-14T07:25:39;836;832;
44674;PMS5003;30388;52.038;-1.478;2022-11-14T07:28:06;826;825;
44674;PMS5003;30388;52.038;-1.478;2022-11-14T07:30:33;826;824;
44674;PMS5003;30388;52.038;-1.478;2022-11-14T07:33:00;827;825;
44674;PMS5003;30388;52.038;-1.478;2022-11-14T07:35:27;834;834;
44674;PMS5003;30388;52.038;-1.478;2022-11-14T07:37:59;823;818;
44674;PMS5003;30388;52.038;-1.478;2022-11-14T07:40:27;828;824;
44674;PMS5003;30388;52.038;-1.478;2022-11-14T07:42:56;820;816;
44674;PMS5003;30388;52.038;-1.478;2022-11-14T07:45:24;816;816;
44674;PMS5003;30388;52.038;-1.478;2022-11-14T07:47:54;814;812;
44674;PMS5003;30388;52.038;-1.478;2022-11-14T07:50:22;832;830;
44674;PMS5003;30388;52.038;-1.478;2022-11-14T07:52:50;824;824;
44674;PMS5003;30388;52.038;-1.478;2022-11-14T07:55:17;860;855;
44674;PMS5003;30388;52.038;-1.478;2022-11-14T07:57:45;854;854;
44674;PMS5003;30388;52.038;-1.478;2022-11-14T08:00:12;838;836;
44674;PMS5003;30388;52.038;-1.478;2022-11-14T08:02:40;839;837;
44674;PMS5003;30388;52.038;-1.478;2022-11-14T08:05:07;839;832;
44674;PMS5003;30388;52.038;-1.478;2022-11-14T08:07:34;833;832;
44674;PMS5003;30388;52.038;-1.478;2022-11-14T08:10:02;809;807;
44674;PMS5003;30388;52.038;-1.478;2022-11-14T08:12:30;825;816;
44674;PMS5003;30388;52.038;-1.478;2022-11-14T08:14:57;838;836;
44674;PMS5003;30388;52.038;-1.478;2022-11-14T08:17:24;837;836;
44674;PMS5003;30388;52.038;-1.478;2022-11-14T08:19:52;839;837;
44674;PMS5003;30388;52.038;-1.478;2022-11-14T08:22:19;822;821;
44674;PMS5003;30388;52.038;-1.478;2022-11-14T08:24:48;828;821;
44674;PMS5003;30388;52.038;-1.478;2022-11-14T08:27:15;828;826;
44674;PMS5003;30388;52.038;-1.478;2022-11-14T08:29:42;838;833;
44674;PMS5003;30388;52.038;-1.478;2022-11-14T08:32:09;836;835;
44674;PMS5003;30388;52.038;-1.478;2022-11-14T08:34:36;836;836;
44674;PMS5003;30388;52.038;-1.478;2022-11-14T08:37:04;849;841;
44674;PMS5003;30388;52.038;-1.478;2022-11-14T08:39:30;827;824;
44674;PMS5003;30388;52.038;-1.478;2022-11-14T08:41:57;813;809;
44674;PMS5003;30388;52.038;-1.478;2022-11-14T08:44:24;810;809;
44674;PMS5003;30388;52.038;-1.478;2022-11-14T08:46:51;839;837;
44674;PMS5003;30388;52.038;-1.478;2022-11-14T08:49:19;838;836;
44674;PMS5003;30388;52.038;-1.478;2022-11-14T08:51:45;813;813;
44674;PMS5003;30388;52.038;-1.478;2022-11-14T08:54:12;804;801;
44674;PMS5003;30388;52.038;-1.478;2022-11-14T08:56:39;810;807;
44674;PMS5003;30388;52.038;-1.478;2022-11-14T08:59:06;790;790;
44674;PMS5003;30388;52.038;-1.478;2022-11-14T09:01:33;794;794;
44674;PMS5003;30388;52.038;-1.478;2022-11-14T09:04:00;795;792;
44674;PMS5003;30388;52.038;-1.478;2022-11-14T09:06:27;787;786;
44674;PMS5003;30388;52.038;-1.478;2022-11-14T09:08:55;800;799;
44674;PMS5003;30388;52.038;-1.478;2022-11-14T09:11:22;791;791;
44674;PMS5003;30388;52.038;-1.478;2022-11-14T09:13:49;828;825;
44674;PMS5003;30388;52.038;-1.478;2022-11-14T09:16:16;837;836;
44674;PMS5003;30388;52.038;-1.478;2022-11-14T09:18:43;840;840;
44674;PMS5003;30388;52.038;-1.478;2022-11-14T09:21:10;818;815;
44674;PMS5003;30388;52.038;-1.478;2022-11-14T09:23:37;825;821;
44674;PMS5003;30388;52.038;-1.478;2022-11-14T09:26:05;839;837;
44674;PMS5003;30388;52.038;-1.478;2022-11-14T09:28:33;897;893;
44674;PMS5003;30388;52.038;-1.478;2022-11-14T09:31:02;856;854;
44674;PMS5003;30388;52.038;-1.478;2022-11-14T09:33:31;827;827;
44674;PMS5003;30388;52.038;-1.478;2022-11-14T09:35:58;818;817;
44674;PMS5003;30388;52.038;-1.478;2022-11-14T09:38:27;811;810;
44674;PMS5003;30388;52.038;-1.478;2022-11-14T09:40:57;807;806;
44674;PMS5003;30388;52.038;-1.478;2022-11-14T09:43:38;869;868;
44674;PMS5003;30388;52.038;-1.478;2022-11-14T09:46:19;838;837;
44674;PMS5003;30388;52.038;-1.478;2022-11-14T09:48:48;822;821;
44674;PMS5003;30388;52.038;-1.478;2022-11-14T09:51:19;833;831;
44674;PMS5003;30388;52.038;-1.478;2022-11-14T09:53:50;834;831;
44674;PMS5003;30388;52.038;-1.478;2022-11-14T09:56:22;808;808;
44674;PMS5003;30388;52.038;-1.478;2022-11-14T09:58:50;801;801;
44674;PMS5003;30388;52.038;-1.478;2022-11-14T10:01:27;787;784;
44674;PMS5003;30388;52.038;-1.478;2022-11-14T10:04:03;840;838;
44674;PMS5003;30388;52.038;-1.478;2022-11-14T10:06:42;816;812;
44674;PMS5003;30388;52.038;-1.478;2022-11-14T10:09:24;867;867;
44674;PMS5003;30388;52.038;-1.478;2022-11-14T10:12:03;861;860;
44674;PMS5003;30388;52.038;-1.478;2022-11-14T10:15:10;867;866;
44674;PMS5003;30388;52.038;-1.478;2022-11-14T10:17:49;882;881;
44674;PMS5003;30388;52.038;-1.478;2022-11-14T10:20:27;860;858;
44674;PMS5003;30388;52.038;-1.478;2022-11-14T10:23:03;875;875;
44674;PMS5003;30388;52.038;-1.478;2022-11-14T10:25:44;847;847;
44674;PMS5003;30388;52.038;-1.478;2022-11-14T10:28:23;902;899;
44674;PMS5003;30388;52.038;-1.478;2022-11-14T10:31:05;880;880;
44674;PMS5003;30388;52.038;-1.478;2022-11-14T10:33:43;887;887;
44674;PMS5003;30388;52.038;-1.478;2022-11-14T10:36:20;933;929;
44674;PMS5003;30388;52.038;-1.478;2022-11-14T10:38:59;899;896;
44674;PMS5003;30388;52.038;-1.478;2022-11-14T10:41:35;878;875;
44674;PMS5003;30388;52.038;-1.478;2022-11-14T10:44:03;880;878;
44674;PMS5003;30388;52.038;-1.478;2022-11-14T10:46:38;880;879;
44674;PMS5003;30388;52.038;-1.478;2022-11-14T10:49:13;874;874;
44674;PMS5003;30388;52.038;-1.478;2022-11-14T10:51:49;882;882;
44674;PMS5003;30388;52.038;-1.478;2022-11-14T10:54:20;877;877;
44674;PMS5003;30388;52.038;-1.478;2022-11-14T10:56:53;864;861;
44674;PMS5003;30388;52.038;-1.478;2022-11-14T10:59:21;873;872;
44674;PMS5003;30388;52.038;-1.478;2022-11-14T11:01:53;840;840;
44674;PMS5003;30388;52.038;-1.478;2022-11-14T11:04:24;825;824;
44674;PMS5003;30388;52.038;-1.478;2022-11-14T11:06:53;866;864;
44674;PMS5003;30388;52.038;-1.478;2022-11-14T11:09:22;840;840;
44674;PMS5003;30388;52.038;-1.478;2022-11-14T11:11:51;824;824;
44674;PMS5003;30388;52.038;-1.478;2022-11-14T11:14:22;860;858;
44674;PMS5003;30388;52.038;-1.478;2022-11-14T11:16:49;831;831;
44674;PMS5003;30388;52.038;-1.478;2022-11-14T11:19:34;870;867;
44674;PMS5003;30388;52.038;-1.478;2022-11-14T11:22:01;857;851;
44674;PMS5003;30388;52.038;-1.478;2022-11-14T11:24:30;867;866;
44674;PMS5003;30388;52.038;-1.478;2022-11-14T11:27:19;887;887;
44674;PMS5003;30388;52.038;-1.478;2022-11-14T11:29:49;834;834;
44674;PMS5003;30388;52.038;-1.478;2022-11-14T11:32:29;836;836;
44674;PMS5003;30388;52.038;-1.478;2022-11-14T11:34:57;830;830;
44674;PMS5003;30388;52.038;-1.478;2022-11-14T11:37:27;801;801;
44674;PMS5003;30388;52.038;-1.478;2022-11-14T11:39:59;835;835;
44674;PMS5003;30388;52.038;-1.478;2022-11-14T11:42:30;846;846;
44674;PMS5003;30388;52.038;-1.478;2022-11-14T11:45:05;834;833;
44674;PMS5003;30388;52.038;-1.478;2022-11-14T11:47:39;827;826;
44674;PMS5003;30388;52.038;-1.478;2022-11-14T11:50:11;809;808;
44674;PMS5003;30388;52.038;-1.478;2022-11-14T11:52:44;829;828;
44674;PMS5003;30388;52.038;-1.478;2022-11-14T11:55:19;844;841;
44674;PMS5003;30388;52.038;-1.478;2022-11-14T11:57:55;837;837;
44674;PMS5003;30388;52.038;-1.478;2022-11-14T12:00:28;856;855;
44674;PMS5003;30388;52.038;-1.478;2022-11-14T12:02:56;795;795;
44674;PMS5003;30388;52.038;-1.478;2022-11-14T12:05:25;789;788;
44674;PMS5003;30388;52.038;-1.478;2022-11-14T12:08:01;801;801;
44674;PMS5003;30388;52.038;-1.478;2022-11-14T12:10:31;816;813;
44674;PMS5003;30388;52.038;-1.478;2022-11-14T12:13:18;788;787;
44674;PMS5003;30388;52.038;-1.478;2022-11-14T12:16:00;780;774;
44674;PMS5003;30388;52.038;-1.478;2022-11-14T12:18:43;793;789;
44674;PMS5003;30388;52.038;-1.478;2022-11-14T12:21:26;795;793;
44674;PMS5003;30388;52.038;-1.478;2022-11-14T12:24:20;807;801;
44674;PMS5003;30388;52.038;-1.478;2022-11-14T12:27:07;764;763;
44674;PMS5003;30388;52.038;-1.478;2022-11-14T12:29:46;785;785;
44674;PMS5003;30388;52.038;-1.478;2022-11-14T12:32:27;812;811;
44674;PMS5003;30388;52.038;-1.478;2022-11-14T12:34:57;799;798;
44674;PMS5003;30388;52.038;-1.478;2022-11-14T12:37:30;782;777;
44674;PMS5003;30388;52.038;-1.478;2022-11-14T12:40:00;786;785;
44674;PMS5003;30388;52.038;-1.478;2022-11-14T12:42:30;776;775;
44674;PMS5003;30388;52.038;-1.478;2022-11-14T12:44:58;789;788;
44674;PMS5003;30388;52.038;-1.478;2022-11-14T12:47:26;785;780;
44674;PMS5003;30388;52.038;-1.478;2022-11-14T12:49:58;813;808;
44674;PMS5003;30388;52.038;-1.478;2022-11-14T12:52:44;767;767;
44674;PMS5003;30388;52.038;-1.478;2022-11-14T12:57:25;759;757;
44674;PMS5003;30388;52.038;-1.478;2022-11-14T13:00:06;778;778;
44674;PMS5003;30388;52.038;-1.478;2022-11-14T13:03:12;775;774;
44674;PMS5003;30388;52.038;-1.478;2022-11-14T13:06:06;819;816;
44674;PMS5003;30388;52.038;-1.478;2022-11-14T13:08:42;829;826;
44674;PMS5003;30388;52.038;-1.478;2022-11-14T13:11:39;806;806;
44674;PMS5003;30388;52.038;-1.478;2022-11-14T13:14:09;824;824;
44674;PMS5003;30388;52.038;-1.478;2022-11-14T13:16:38;833;832;
44674;PMS5003;30388;52.038;-1.478;2022-11-14T13:19:12;800;796;
44674;PMS5003;30388;52.038;-1.478;2022-11-14T13:22:16;811;811;
44674;PMS5003;30388;52.038;-1.478;2022-11-14T13:25:16;805;805;
44674;PMS5003;30388;52.038;-1.478;2022-11-14T13:27:45;829;828;
44674;PMS5003;30388;52.038;-1.478;2022-11-14T13:30:13;840;839;
44674;PMS5003;30388;52.038;-1.478;2022-11-14T13:32:53;809;809;
44674;PMS5003;30388;52.038;-1.478;2022-11-14T13:35:24;835;835;
44674;PMS5003;30388;52.038;-1.478;2022-11-14T13:38:34;845;845;
44674;PMS5003;30388;52.038;-1.478;2022-11-14T13:41:26;848;846;
44674;PMS5003;30388;52.038;-1.478;2022-11-14T13:44:15;854;852;
44674;PMS5003;30388;52.038;-1.478;2022-11-14T13:47:06;841;838;
44674;PMS5003;30388;52.038;-1.478;2022-11-14T13:49:51;887;882;
44674;PMS5003;30388;52.038;-1.478;2022-11-14T13:52:26;863;860;
44674;PMS5003;30388;52.038;-1.478;2022-11-14T13:54:56;909;909;
44674;PMS5003;30388;52.038;-1.478;2022-11-14T13:57:27;890;881;
44674;PMS5003;30388;52.038;-1.478;2022-11-14T14:00:08;898;898;
44674;PMS5003;30388;52.038;-1.478;2022-11-14T14:04:52;864;860;
44674;PMS5003;30388;52.038;-1.478;2022-11-14T14:07:30;850;850;
44674;PMS5003;30388;52.038;-1.478;2022-11-14T14:10:12;848;845;
44674;PMS5003;30388;52.038;-1.478;2022-11-14T14:12:53;882;882;
44674;PMS5003;30388;52.038;-1.478;2022-11-14T14:15:32;866;866;
44674;PMS5003;30388;52.038;-1.478;2022-11-14T14:18:05;859;856;
44674;PMS5003;30388;52.038;-1.478;2022-11-14T14:20:43;876;873;
44674;PMS5003;30388;52.038;-1.478;2022-11-14T14:23:16;873;870;
44674;PMS5003;30388;52.038;-1.478;2022-11-14T14:25:59;872;872;
44674;PMS5003;30388;52.038;-1.478;2022-11-14T14:28:35;883;881;
44674;PMS5003;30388;52.038;-1.478;2022-11-14T14:31:10;895;891;
44674;PMS5003;30388;52.038;-1.478;2022-11-14T14:33:40;885;885;
44674;PMS5003;30388;52.038;-1.478;2022-11-14T14:36:18;893;887;
44674;PMS5003;30388;52.038;-1.478;2022-11-14T14:38:46;864;863;
44674;PMS5003;30388;52.038;-1.478;2022-11-14T14:41:15;877;877;
44674;PMS5003;30388;52.038;-1.478;2022-11-14T14:43:49;868;867;
44674;PMS5003;30388;52.038;-1.478;2022-11-14T14:46:27;841;834;
44674;PMS5003;30388;52.038;-1.478;2022-11-14T14:48:55;847;844;
44674;PMS5003;30388;52.038;-1.478;2022-11-14T14:51:29;873;873;
44674;PMS5003;30388;52.038;-1.478;2022-11-14T14:53:58;851;849;
44674;PMS5003;30388;52.038;-1.478;2022-11-14T14:56:26;857;857;
44674;PMS5003;30388;52.038;-1.478;2022-11-14T14:58:53;873;868;
44674;PMS5003;30388;52.038;-1.478;2022-11-14T15:01:22;861;861;
44674;PMS5003;30388;52.038;-1.478;2022-11-14T15:03:55;858;856;
44674;PMS5003;30388;52.038;-1.478;2022-11-14T15:06:28;854;854;
44674;PMS5003;30388;52.038;-1.478;2022-11-14T15:08:59;857;853;
44674;PMS5003;30388;52.038;-1.478;2022-11-14T15:11:33;856;855;
44674;PMS5003;30388;52.038;-1.478;2022-11-14T15:14:01;857;856;
44674;PMS5003;30388;52.038;-1.478;2022-11-14T15:16:28;853;853;
44674;PMS5003;30388;52.038;-1.478;2022-11-14T15:18:56;864;864;
44674;PMS5003;30388;52.038;-1.478;2022-11-14T15:21:26;875;874;
44674;PMS5003;30388;52.038;-1.478;2022-11-14T15:23:57;874;873;
44674;PMS5003;30388;52.038;-1.478;2022-11-14T15:26:25;880;879;
44674;PMS5003;30388;52.038;-1.478;2022-11-14T15:29:03;881;879;
44674;PMS5003;30388;52.038;-1.478;2022-11-14T15:31:31;879;876;
44674;PMS5003;30388;52.038;-1.478;2022-11-14T15:34:03;884;882;
44674;PMS5003;30388;52.038;-1.478;2022-11-14T15:36:32;883;882;
44674;PMS5003;30388;52.038;-1.478;2022-11-14T15:39:01;895;893;
44674;PMS5003;30388;52.038;-1.478;2022-11-14T15:41:29;920;912;
44674;PMS5003;30388;52.038;-1.478;2022-11-14T15:43:56;922;919;
44674;PMS5003;30388;52.038;-1.478;2022-11-14T15:46:25;929;926;
44674;PMS5003;30388;52.038;-1.478;2022-11-14T15:48:59;922;922;
44674;PMS5003;30388;52.038;-1.478;2022-11-14T15:51:40;938;937;
44674;PMS5003;30388;52.038;-1.478;2022-11-14T15:54:26;951;948;
44674;PMS5003;30388;52.038;-1.478;2022-11-14T15:56:56;951;944;